sensor_id;sensor_type;location;lat;lon;timestamp;temperature;humidity
27633;DHT22;15046;50.930;13.334;2023-04-07T00:00:45;3.50;67.40
27633;DHT22;15046;50.930;13.334;2023-04-07T00:03:11;3.40;67.50
27633;DHT22;15046;50.930;13.334;2023-04-07T00:05:37;3.30;67.60
27633;DHT22;15046;50.930;13.334;2023-04-07T00:08:03;3.30;67.90
27633;DHT22;15046;50.930;13.334;2023-04-07T00:10:28;3.20;68.00
27633;DHT22;15046;50.930;13.334;2023-04-07T00:12:54;3.10;68.20
27633;DHT22;15046;50.930;13.334;2023-04-07T00:15:20;3.00;68.40
27633;DHT22;15046;50.930;13.334;2023-04-07T00:17:46;3.00;68.60
27633;DHT22;15046;50.930;13.334;2023-04-07T00:20:12;2.90;68.70
27633;DHT22;15046;50.930;13.334;2023-04-07T00:22:37;2.90;68.90
27633;DHT22;15046;50.930;13.334;2023-04-07T00:25:03;2.90;69.10
27633;DHT22;15046;50.930;13.334;2023-04-07T00:27:29;2.80;69.20
27633;DHT22;15046;50.930;13.334;2023-04-07T00:29:55;2.80;69.40
27633;DHT22;15046;50.930;13.334;2023-04-07T00:32:21;2.80;69.50
27633;DHT22;15046;50.930;13.334;2023-04-07T00:34:47;2.80;69.60
27633;DHT22;15046;50.930;13.334;2023-04-07T00:37:13;2.70;69.70
27633;DHT22;15046;50.930;13.334;2023-04-07T00:39:39;2.70;69.90
27633;DHT22;15046;50.930;13.334;2023-04-07T00:42:04;2.70;70.00
27633;DHT22;15046;50.930;13.334;2023-04-07T00:44:31;2.70;70.10
27633;DHT22;15046;50.930;13.334;2023-04-07T00:46:58;2.70;70.70
27633;DHT22;15046;50.930;13.334;2023-04-07T00:49:25;2.80;70.10
27633;DHT22;15046;50.930;13.334;2023-04-07T00:51:54;2.80;70.10
27633;DHT22;15046;50.930;13.334;2023-04-07T00:54:22;2.80;70.20
27633;DHT22;15046;50.930;13.334;2023-04-07T00:56:48;2.70;70.20
27633;DHT22;15046;50.930;13.334;2023-04-07T00:59:14;2.60;70.50
27633;DHT22;15046;50.930;13.334;2023-04-07T01:01:57;2.50;70.70
27633;DHT22;15046;50.930;13.334;2023-04-07T01:07:00;2.50;70.90
27633;DHT22;15046;50.930;13.334;2023-04-07T01:09:36;2.40;71.00
27633;DHT22;15046;50.930;13.334;2023-04-07T01:12:28;2.40;71.20
27633;DHT22;15046;50.930;13.334;2023-04-07T01:15:03;2.40;71.40
27633;DHT22;15046;50.930;13.334;2023-04-07T01:17:31;2.30;71.30
27633;DHT22;15046;50.930;13.334;2023-04-07T01:20:02;2.20;71.40
27633;DHT22;15046;50.930;13.334;2023-04-07T01:22:53;2.20;71.70
27633;DHT22;15046;50.930;13.334;2023-04-07T01:36:08;1.90;72.40
27633;DHT22;15046;50.930;13.334;2023-04-07T01:38:34;1.90;72.60
27633;DHT22;15046;50.930;13.334;2023-04-07T01:41:01;1.90;72.80
27633;DHT22;15046;50.930;13.334;2023-04-07T01:43:28;1.90;72.80
27633;DHT22;15046;50.930;13.334;2023-04-07T01:45:55;1.90;72.90
27633;DHT22;15046;50.930;13.334;2023-04-07T01:48:22;1.90;72.90
27633;DHT22;15046;50.930;13.334;2023-04-07T01:50:49;1.90;72.90
27633;DHT22;15046;50.930;13.334;2023-04-07T01:53:15;1.90;73.00
27633;DHT22;15046;50.930;13.334;2023-04-07T01:55:43;1.80;73.10
27633;DHT22;15046;50.930;13.334;2023-04-07T01:58:09;1.70;73.20
27633;DHT22;15046;50.930;13.334;2023-04-07T02:00:35;1.70;73.40
27633;DHT22;15046;50.930;13.334;2023-04-07T02:03:19;1.60;73.50
27633;DHT22;15046;50.930;13.334;2023-04-07T02:05:54;1.60;73.80
27633;DHT22;15046;50.930;13.334;2023-04-07T02:08:23;1.60;73.80
27633;DHT22;15046;50.930;13.334;2023-04-07T02:10:52;1.60;73.80
27633;DHT22;15046;50.930;13.334;2023-04-07T02:13:20;1.60;74.00
27633;DHT22;15046;50.930;13.334;2023-04-07T02:15:47;1.50;73.90
27633;DHT22;15046;50.930;13.334;2023-04-07T02:18:14;1.50;74.00
27633;DHT22;15046;50.930;13.334;2023-04-07T02:20:42;1.50;74.20
27633;DHT22;15046;50.930;13.334;2023-04-07T02:23:08;1.50;74.30
27633;DHT22;15046;50.930;13.334;2023-04-07T02:25:35;1.40;74.30
27633;DHT22;15046;50.930;13.334;2023-04-07T02:28:03;1.40;74.30
27633;DHT22;15046;50.930;13.334;2023-04-07T02:30:30;1.40;74.30
27633;DHT22;15046;50.930;13.334;2023-04-07T02:32:56;1.30;74.40
27633;DHT22;15046;50.930;13.334;2023-04-07T02:35:22;1.30;74.60
27633;DHT22;15046;50.930;13.334;2023-04-07T02:37:48;1.20;74.70
27633;DHT22;15046;50.930;13.334;2023-04-07T02:40:14;1.20;74.80
27633;DHT22;15046;50.930;13.334;2023-04-07T02:42:40;1.10;74.90
27633;DHT22;15046;50.930;13.334;2023-04-07T02:45:07;1.00;75.10
27633;DHT22;15046;50.930;13.334;2023-04-07T02:47:34;1.00;75.40
27633;DHT22;15046;50.930;13.334;2023-04-07T02:50:01;0.90;75.50
27633;DHT22;15046;50.930;13.334;2023-04-07T02:52:27;0.90;75.70
27633;DHT22;15046;50.930;13.334;2023-04-07T02:54:52;0.90;76.00
27633;DHT22;15046;50.930;13.334;2023-04-07T02:57:19;0.80;76.00
27633;DHT22;15046;50.930;13.334;2023-04-07T02:59:45;0.80;76.00
27633;DHT22;15046;50.930;13.334;2023-04-07T03:02:11;0.80;76.20
27633;DHT22;15046;50.930;13.334;2023-04-07T03:04:36;0.80;76.40
27633;DHT22;15046;50.930;13.334;2023-04-07T03:07:03;0.80;76.40
27633;DHT22;15046;50.930;13.334;2023-04-07T03:09:28;0.70;76.50
27633;DHT22;15046;50.930;13.334;2023-04-07T03:11:54;0.70;76.60
27633;DHT22;15046;50.930;13.334;2023-04-07T03:14:20;0.70;76.60
27633;DHT22;15046;50.930;13.334;2023-04-07T03:16:46;0.70;76.80
27633;DHT22;15046;50.930;13.334;2023-04-07T03:19:12;0.70;76.80
27633;DHT22;15046;50.930;13.334;2023-04-07T03:21:38;0.70;76.90
27633;DHT22;15046;50.930;13.334;2023-04-07T03:24:05;0.60;76.90
27633;DHT22;15046;50.930;13.334;2023-04-07T03:26:31;0.50;77.00
27633;DHT22;15046;50.930;13.334;2023-04-07T03:28:57;0.50;77.20
27633;DHT22;15046;50.930;13.334;2023-04-07T03:31:23;0.40;77.40
27633;DHT22;15046;50.930;13.334;2023-04-07T03:33:49;0.40;77.70
27633;DHT22;15046;50.930;13.334;2023-04-07T03:36:16;0.40;77.80
27633;DHT22;15046;50.930;13.334;2023-04-07T03:38:45;0.30;77.90
27633;DHT22;15046;50.930;13.334;2023-04-07T03:41:11;0.30;77.90
27633;DHT22;15046;50.930;13.334;2023-04-07T03:43:37;0.30;78.10
27633;DHT22;15046;50.930;13.334;2023-04-07T03:46:03;0.20;78.10
27633;DHT22;15046;50.930;13.334;2023-04-07T03:48:29;0.30;78.30
27633;DHT22;15046;50.930;13.334;2023-04-07T03:50:55;0.30;78.20
27633;DHT22;15046;50.930;13.334;2023-04-07T03:53:22;0.20;78.20
27633;DHT22;15046;50.930;13.334;2023-04-07T03:55:47;0.20;78.30
27633;DHT22;15046;50.930;13.334;2023-04-07T03:58:13;0.20;78.40
27633;DHT22;15046;50.930;13.334;2023-04-07T04:00:40;0.20;78.60
27633;DHT22;15046;50.930;13.334;2023-04-07T04:03:05;0.10;78.60
27633;DHT22;15046;50.930;13.334;2023-04-07T04:05:31;0.10;78.70
27633;DHT22;15046;50.930;13.334;2023-04-07T04:07:57;0.10;78.80
27633;DHT22;15046;50.930;13.334;2023-04-07T04:10:23;0.10;78.80
27633;DHT22;15046;50.930;13.334;2023-04-07T04:12:49;0.10;78.80
27633;DHT22;15046;50.930;13.334;2023-04-07T04:15:15;0.00;78.90
27633;DHT22;15046;50.930;13.334;2023-04-07T04:17:41;-0.10;79.10
27633;DHT22;15046;50.930;13.334;2023-04-07T04:20:07;-0.10;79.40
27633;DHT22;15046;50.930;13.334;2023-04-07T04:22:34;-0.10;79.50
27633;DHT22;15046;50.930;13.334;2023-04-07T04:25:00;-0.20;79.60
27633;DHT22;15046;50.930;13.334;2023-04-07T04:27:26;-0.20;79.70
27633;DHT22;15046;50.930;13.334;2023-04-07T04:29:52;-0.20;79.80
27633;DHT22;15046;50.930;13.334;2023-04-07T04:32:18;-0.10;80.00
27633;DHT22;15046;50.930;13.334;2023-04-07T04:34:44;-0.10;80.00
27633;DHT22;15046;50.930;13.334;2023-04-07T04:37:10;-0.20;80.00
27633;DHT22;15046;50.930;13.334;2023-04-07T04:39:36;-0.20;80.10
27633;DHT22;15046;50.930;13.334;2023-04-07T04:42:02;-0.20;80.20
27633;DHT22;15046;50.930;13.334;2023-04-07T04:44:28;-0.20;80.30
27633;DHT22;15046;50.930;13.334;2023-04-07T04:46:55;-0.20;80.40
27633;DHT22;15046;50.930;13.334;2023-04-07T04:49:21;-0.20;80.50
27633;DHT22;15046;50.930;13.334;2023-04-07T04:51:47;-0.20;80.50
27633;DHT22;15046;50.930;13.334;2023-04-07T04:54:13;-0.20;80.50
27633;DHT22;15046;50.930;13.334;2023-04-07T04:56:39;-0.20;80.60
27633;DHT22;15046;50.930;13.334;2023-04-07T04:59:05;-0.20;80.70
27633;DHT22;15046;50.930;13.334;2023-04-07T05:01:31;-0.20;80.70
27633;DHT22;15046;50.930;13.334;2023-04-07T05:03:57;-0.20;80.80
27633;DHT22;15046;50.930;13.334;2023-04-07T05:06:22;-0.20;80.80
27633;DHT22;15046;50.930;13.334;2023-04-07T05:08:48;-0.20;80.90
27633;DHT22;15046;50.930;13.334;2023-04-07T05:11:15;-0.10;81.10
27633;DHT22;15046;50.930;13.334;2023-04-07T05:13:41;-0.10;81.10
27633;DHT22;15046;50.930;13.334;2023-04-07T05:16:07;-0.10;81.20
27633;DHT22;15046;50.930;13.334;2023-04-07T05:18:33;0.00;81.30
27633;DHT22;15046;50.930;13.334;2023-04-07T05:20:59;0.00;81.40
27633;DHT22;15046;50.930;13.334;2023-04-07T05:23:26;0.10;81.50
27633;DHT22;15046;50.930;13.334;2023-04-07T05:25:52;0.10;81.60
27633;DHT22;15046;50.930;13.334;2023-04-07T05:28:18;0.20;81.60
27633;DHT22;15046;50.930;13.334;2023-04-07T05:30:44;0.30;81.60
27633;DHT22;15046;50.930;13.334;2023-04-07T05:33:10;0.40;81.70
27633;DHT22;15046;50.930;13.334;2023-04-07T05:35:36;0.50;81.60
27633;DHT22;15046;50.930;13.334;2023-04-07T05:38:01;0.60;81.50
27633;DHT22;15046;50.930;13.334;2023-04-07T05:40:27;0.70;81.40
27633;DHT22;15046;50.930;13.334;2023-04-07T05:42:55;0.80;81.30
27633;DHT22;15046;50.930;13.334;2023-04-07T05:45:21;0.90;81.20
27633;DHT22;15046;50.930;13.334;2023-04-07T05:47:46;1.00;81.10
27633;DHT22;15046;50.930;13.334;2023-04-07T05:50:15;1.10;81.00
27633;DHT22;15046;50.930;13.334;2023-04-07T05:52:41;1.10;80.90
27633;DHT22;15046;50.930;13.334;2023-04-07T05:55:07;1.20;80.90
27633;DHT22;15046;50.930;13.334;2023-04-07T05:57:33;1.30;81.00
27633;DHT22;15046;50.930;13.334;2023-04-07T06:00:00;1.30;81.00
27633;DHT22;15046;50.930;13.334;2023-04-07T06:02:25;1.30;80.90
27633;DHT22;15046;50.930;13.334;2023-04-07T06:04:51;1.40;80.70
27633;DHT22;15046;50.930;13.334;2023-04-07T06:07:17;1.60;80.80
27633;DHT22;15046;50.930;13.334;2023-04-07T06:09:43;1.70;80.70
27633;DHT22;15046;50.930;13.334;2023-04-07T06:12:09;1.80;81.00
27633;DHT22;15046;50.930;13.334;2023-04-07T06:14:37;2.00;80.30
27633;DHT22;15046;50.930;13.334;2023-04-07T06:17:03;2.20;80.00
27633;DHT22;15046;50.930;13.334;2023-04-07T06:19:29;2.40;79.70
27633;DHT22;15046;50.930;13.334;2023-04-07T06:21:55;2.60;79.60
27633;DHT22;15046;50.930;13.334;2023-04-07T06:24:20;2.80;79.50
27633;DHT22;15046;50.930;13.334;2023-04-07T06:26:50;2.90;79.10
27633;DHT22;15046;50.930;13.334;2023-04-07T06:29:16;3.10;78.80
27633;DHT22;15046;50.930;13.334;2023-04-07T06:31:42;3.30;78.60
27633;DHT22;15046;50.930;13.334;2023-04-07T06:34:08;3.40;78.30
27633;DHT22;15046;50.930;13.334;2023-04-07T06:36:34;3.40;78.00
27633;DHT22;15046;50.930;13.334;2023-04-07T06:39:00;3.50;77.60
27633;DHT22;15046;50.930;13.334;2023-04-07T06:41:26;3.60;76.90
27633;DHT22;15046;50.930;13.334;2023-04-07T06:43:52;3.70;76.30
27633;DHT22;15046;50.930;13.334;2023-04-07T06:46:18;3.70;75.80
27633;DHT22;15046;50.930;13.334;2023-04-07T06:48:44;3.80;75.90
27633;DHT22;15046;50.930;13.334;2023-04-07T06:51:11;3.90;75.30
27633;DHT22;15046;50.930;13.334;2023-04-07T06:53:37;3.90;75.30
27633;DHT22;15046;50.930;13.334;2023-04-07T06:56:10;3.90;75.20
27633;DHT22;15046;50.930;13.334;2023-04-07T06:58:36;4.00;74.80
27633;DHT22;15046;50.930;13.334;2023-04-07T07:01:03;4.20;74.00
27633;DHT22;15046;50.930;13.334;2023-04-07T07:03:30;4.40;73.30
27633;DHT22;15046;50.930;13.334;2023-04-07T07:05:59;4.50;72.80
27633;DHT22;15046;50.930;13.334;2023-04-07T07:08:26;4.60;72.50
27633;DHT22;15046;50.930;13.334;2023-04-07T07:10:52;4.60;72.30
27633;DHT22;15046;50.930;13.334;2023-04-07T07:13:20;4.60;72.10
27633;DHT22;15046;50.930;13.334;2023-04-07T07:15:48;4.60;72.10
27633;DHT22;15046;50.930;13.334;2023-04-07T07:18:14;4.60;72.00
27633;DHT22;15046;50.930;13.334;2023-04-07T07:20:40;4.50;72.00
27633;DHT22;15046;50.930;13.334;2023-04-07T07:23:06;4.50;72.00
27633;DHT22;15046;50.930;13.334;2023-04-07T07:25:32;4.60;71.90
27633;DHT22;15046;50.930;13.334;2023-04-07T07:27:58;4.70;71.90
27633;DHT22;15046;50.930;13.334;2023-04-07T07:30:24;4.80;71.90
27633;DHT22;15046;50.930;13.334;2023-04-07T07:32:51;4.90;71.70
27633;DHT22;15046;50.930;13.334;2023-04-07T07:35:18;5.10;71.10
27633;DHT22;15046;50.930;13.334;2023-04-07T07:37:44;5.30;70.70
27633;DHT22;15046;50.930;13.334;2023-04-07T07:40:10;5.30;70.50
27633;DHT22;15046;50.930;13.334;2023-04-07T07:42:37;5.30;70.30
27633;DHT22;15046;50.930;13.334;2023-04-07T07:45:04;5.30;70.20
27633;DHT22;15046;50.930;13.334;2023-04-07T07:47:30;5.30;70.40
27633;DHT22;15046;50.930;13.334;2023-04-07T07:49:56;5.30;70.70
27633;DHT22;15046;50.930;13.334;2023-04-07T07:52:22;5.50;70.40
27633;DHT22;15046;50.930;13.334;2023-04-07T07:54:49;5.70;69.80
27633;DHT22;15046;50.930;13.334;2023-04-07T07:57:15;5.90;69.60
27633;DHT22;15046;50.930;13.334;2023-04-07T07:59:41;6.10;69.30
27633;DHT22;15046;50.930;13.334;2023-04-07T08:02:08;6.20;69.10
27633;DHT22;15046;50.930;13.334;2023-04-07T08:04:35;6.40;68.80
27633;DHT22;15046;50.930;13.334;2023-04-07T08:07:02;6.50;68.50
27633;DHT22;15046;50.930;13.334;2023-04-07T08:09:28;6.60;68.10
27633;DHT22;15046;50.930;13.334;2023-04-07T08:11:54;6.60;67.80
27633;DHT22;15046;50.930;13.334;2023-04-07T08:14:20;6.70;67.30
27633;DHT22;15046;50.930;13.334;2023-04-07T08:16:46;6.80;66.90
27633;DHT22;15046;50.930;13.334;2023-04-07T08:19:12;6.90;66.40
27633;DHT22;15046;50.930;13.334;2023-04-07T08:21:38;6.90;66.10
27633;DHT22;15046;50.930;13.334;2023-04-07T08:24:05;6.90;65.90
27633;DHT22;15046;50.930;13.334;2023-04-07T08:26:31;6.90;65.50
27633;DHT22;15046;50.930;13.334;2023-04-07T08:28:57;7.00;65.30
27633;DHT22;15046;50.930;13.334;2023-04-07T08:31:23;7.10;65.60
27633;DHT22;15046;50.930;13.334;2023-04-07T08:33:50;7.30;65.30
27633;DHT22;15046;50.930;13.334;2023-04-07T08:36:23;7.50;64.50
27633;DHT22;15046;50.930;13.334;2023-04-07T08:38:48;7.80;63.80
27633;DHT22;15046;50.930;13.334;2023-04-07T08:41:22;8.00;63.10
27633;DHT22;15046;50.930;13.334;2023-04-07T08:43:49;8.30;63.00
27633;DHT22;15046;50.930;13.334;2023-04-07T08:46:19;8.50;62.90
27633;DHT22;15046;50.930;13.334;2023-04-07T08:48:49;8.80;62.60
27633;DHT22;15046;50.930;13.334;2023-04-07T08:51:27;9.10;62.10
27633;DHT22;15046;50.930;13.334;2023-04-07T08:53:56;9.30;61.50
27633;DHT22;15046;50.930;13.334;2023-04-07T08:56:25;9.60;60.70
27633;DHT22;15046;50.930;13.334;2023-04-07T08:58:52;9.80;60.10
27633;DHT22;15046;50.930;13.334;2023-04-07T09:01:19;9.90;59.80
27633;DHT22;15046;50.930;13.334;2023-04-07T09:03:45;9.90;59.60
27633;DHT22;15046;50.930;13.334;2023-04-07T09:06:13;10.00;59.70
27633;DHT22;15046;50.930;13.334;2023-04-07T09:08:39;10.10;59.60
27633;DHT22;15046;50.930;13.334;2023-04-07T09:11:05;10.10;59.40
27633;DHT22;15046;50.930;13.334;2023-04-07T09:13:31;10.20;59.20
27633;DHT22;15046;50.930;13.334;2023-04-07T09:16:02;10.30;59.00
27633;DHT22;15046;50.930;13.334;2023-04-07T09:18:27;10.30;58.60
27633;DHT22;15046;50.930;13.334;2023-04-07T09:23:41;10.50;58.90
27633;DHT22;15046;50.930;13.334;2023-04-07T09:26:27;10.60;58.50
27633;DHT22;15046;50.930;13.334;2023-04-07T09:29:00;10.70;58.60
27633;DHT22;15046;50.930;13.334;2023-04-07T09:31:49;10.80;58.50
27633;DHT22;15046;50.930;13.334;2023-04-07T09:36:52;11.00;58.30
27633;DHT22;15046;50.930;13.334;2023-04-07T09:39:19;11.20;58.10
27633;DHT22;15046;50.930;13.334;2023-04-07T09:41:45;11.30;57.40
27633;DHT22;15046;50.930;13.334;2023-04-07T09:44:11;11.40;56.70
27633;DHT22;15046;50.930;13.334;2023-04-07T09:46:57;11.50;56.60
27633;DHT22;15046;50.930;13.334;2023-04-07T09:49:24;11.70;56.20
27633;DHT22;15046;50.930;13.334;2023-04-07T09:51:58;12.00;56.20
27633;DHT22;15046;50.930;13.334;2023-04-07T09:54:38;12.50;55.70
27633;DHT22;15046;50.930;13.334;2023-04-07T09:57:06;12.80;55.20
27633;DHT22;15046;50.930;13.334;2023-04-07T09:59:35;13.00;54.60
27633;DHT22;15046;50.930;13.334;2023-04-07T10:02:01;13.00;54.30
27633;DHT22;15046;50.930;13.334;2023-04-07T10:04:27;12.90;53.80
27633;DHT22;15046;50.930;13.334;2023-04-07T10:06:54;12.80;54.20
27633;DHT22;15046;50.930;13.334;2023-04-07T10:09:27;12.80;54.70
27633;DHT22;15046;50.930;13.334;2023-04-07T10:11:54;12.80;54.40
27633;DHT22;15046;50.930;13.334;2023-04-07T10:14:34;12.80;54.00
27633;DHT22;15046;50.930;13.334;2023-04-07T10:17:02;12.90;54.10
27633;DHT22;15046;50.930;13.334;2023-04-07T10:19:31;13.00;54.30
27633;DHT22;15046;50.930;13.334;2023-04-07T10:21:59;13.10;54.00
27633;DHT22;15046;50.930;13.334;2023-04-07T10:27:04;13.20;53.60
27633;DHT22;15046;50.930;13.334;2023-04-07T10:29:40;13.00;53.70
27633;DHT22;15046;50.930;13.334;2023-04-07T10:32:06;12.90;53.60
27633;DHT22;15046;50.930;13.334;2023-04-07T10:37:19;12.80;54.10
27633;DHT22;15046;50.930;13.334;2023-04-07T10:39:47;12.80;54.40
27633;DHT22;15046;50.930;13.334;2023-04-07T10:45:02;12.90;53.70
27633;DHT22;15046;50.930;13.334;2023-04-07T10:47:29;12.80;53.90
27633;DHT22;15046;50.930;13.334;2023-04-07T10:50:14;12.70;53.90
27633;DHT22;15046;50.930;13.334;2023-04-07T10:52:41;12.70;53.90
27633;DHT22;15046;50.930;13.334;2023-04-07T10:55:31;12.70;54.20
27633;DHT22;15046;50.930;13.334;2023-04-07T10:58:26;12.60;54.20
27633;DHT22;15046;50.930;13.334;2023-04-07T11:03:34;12.40;55.00
27633;DHT22;15046;50.930;13.334;2023-04-07T11:06:11;12.30;55.00
27633;DHT22;15046;50.930;13.334;2023-04-07T11:08:43;12.20;54.80
27633;DHT22;15046;50.930;13.334;2023-04-07T11:11:11;12.10;55.00
27633;DHT22;15046;50.930;13.334;2023-04-07T11:16:11;11.90;55.00
27633;DHT22;15046;50.930;13.334;2023-04-07T11:18:38;11.90;55.10
27633;DHT22;15046;50.930;13.334;2023-04-07T11:21:05;12.00;54.90
27633;DHT22;15046;50.930;13.334;2023-04-07T11:23:42;12.10;54.90
27633;DHT22;15046;50.930;13.334;2023-04-07T11:26:10;12.10;55.20
27633;DHT22;15046;50.930;13.334;2023-04-07T11:29:02;12.30;54.50
27633;DHT22;15046;50.930;13.334;2023-04-07T11:31:28;12.50;54.40
27633;DHT22;15046;50.930;13.334;2023-04-07T11:34:04;12.80;53.60
27633;DHT22;15046;50.930;13.334;2023-04-07T11:36:36;13.20;53.40
27633;DHT22;15046;50.930;13.334;2023-04-07T11:39:02;14.10;52.80
27633;DHT22;15046;50.930;13.334;2023-04-07T11:41:30;16.10;51.50
27633;DHT22;15046;50.930;13.334;2023-04-07T11:44:08;17.90;49.10
27633;DHT22;15046;50.930;13.334;2023-04-07T11:46:34;18.60;47.20
27633;DHT22;15046;50.930;13.334;2023-04-07T11:49:12;18.80;47.10
27633;DHT22;15046;50.930;13.334;2023-04-07T11:51:38;19.40;45.90
27633;DHT22;15046;50.930;13.334;2023-04-07T11:54:04;20.40;45.00
27633;DHT22;15046;50.930;13.334;2023-04-07T11:56:41;20.90;43.80
27633;DHT22;15046;50.930;13.334;2023-04-07T11:59:07;21.70;43.00
27633;DHT22;15046;50.930;13.334;2023-04-07T12:01:39;22.30;42.00
27633;DHT22;15046;50.930;13.334;2023-04-07T12:04:12;23.10;41.80
27633;DHT22;15046;50.930;13.334;2023-04-07T12:06:39;24.30;41.40
27633;DHT22;15046;50.930;13.334;2023-04-07T12:09:08;24.70;41.40
27633;DHT22;15046;50.930;13.334;2023-04-07T12:11:34;24.40;40.10
27633;DHT22;15046;50.930;13.334;2023-04-07T12:14:01;23.50;40.20
27633;DHT22;15046;50.930;13.334;2023-04-07T12:16:29;23.00;40.90
27633;DHT22;15046;50.930;13.334;2023-04-07T12:18:55;22.60;41.20
27633;DHT22;15046;50.930;13.334;2023-04-07T12:21:22;22.20;41.50
27633;DHT22;15046;50.930;13.334;2023-04-07T12:23:50;21.90;41.70
27633;DHT22;15046;50.930;13.334;2023-04-07T12:26:16;21.30;42.20
27633;DHT22;15046;50.930;13.334;2023-04-07T12:28:42;20.60;42.90
27633;DHT22;15046;50.930;13.334;2023-04-07T12:31:08;20.10;43.50
27633;DHT22;15046;50.930;13.334;2023-04-07T12:33:34;19.60;43.80
27633;DHT22;15046;50.930;13.334;2023-04-07T12:36:00;19.40;44.30
27633;DHT22;15046;50.930;13.334;2023-04-07T12:38:26;19.30;44.70
27633;DHT22;15046;50.930;13.334;2023-04-07T12:40:53;19.40;44.50
27633;DHT22;15046;50.930;13.334;2023-04-07T12:43:19;19.50;44.20
27633;DHT22;15046;50.930;13.334;2023-04-07T12:45:45;19.50;43.90
27633;DHT22;15046;50.930;13.334;2023-04-07T12:48:11;19.10;44.10
27633;DHT22;15046;50.930;13.334;2023-04-07T12:50:37;18.70;44.50
27633;DHT22;15046;50.930;13.334;2023-04-07T12:53:03;18.20;45.00
27633;DHT22;15046;50.930;13.334;2023-04-07T12:55:30;17.60;45.20
27633;DHT22;15046;50.930;13.334;2023-04-07T12:57:58;16.90;46.90
27633;DHT22;15046;50.930;13.334;2023-04-07T13:00:24;16.50;47.80
27633;DHT22;15046;50.930;13.334;2023-04-07T13:02:50;16.20;47.90
27633;DHT22;15046;50.930;13.334;2023-04-07T13:05:17;16.10;48.20
27633;DHT22;15046;50.930;13.334;2023-04-07T13:07:43;15.90;48.50
27633;DHT22;15046;50.930;13.334;2023-04-07T13:10:09;15.60;48.40
27633;DHT22;15046;50.930;13.334;2023-04-07T13:12:36;15.30;48.50
27633;DHT22;15046;50.930;13.334;2023-04-07T13:15:02;15.00;49.20
27633;DHT22;15046;50.930;13.334;2023-04-07T13:17:28;14.90;49.60
27633;DHT22;15046;50.930;13.334;2023-04-07T13:19:54;14.90;49.80
27633;DHT22;15046;50.930;13.334;2023-04-07T13:22:20;14.80;50.10
27633;DHT22;15046;50.930;13.334;2023-04-07T13:24:49;14.70;50.10
27633;DHT22;15046;50.930;13.334;2023-04-07T13:27:15;14.50;50.50
27633;DHT22;15046;50.930;13.334;2023-04-07T13:29:41;14.30;51.00
27633;DHT22;15046;50.930;13.334;2023-04-07T13:32:08;14.30;51.10
27633;DHT22;15046;50.930;13.334;2023-04-07T13:34:35;14.10;50.90
27633;DHT22;15046;50.930;13.334;2023-04-07T13:37:02;13.90;50.70
27633;DHT22;15046;50.930;13.334;2023-04-07T13:39:29;13.70;51.00
27633;DHT22;15046;50.930;13.334;2023-04-07T13:41:55;13.50;51.30
27633;DHT22;15046;50.930;13.334;2023-04-07T13:44:22;13.40;51.80
27633;DHT22;15046;50.930;13.334;2023-04-07T13:46:48;13.30;52.20
27633;DHT22;15046;50.930;13.334;2023-04-07T13:49:14;13.20;52.40
27633;DHT22;15046;50.930;13.334;2023-04-07T13:51:40;13.10;52.70
27633;DHT22;15046;50.930;13.334;2023-04-07T13:54:07;13.20;52.70
27633;DHT22;15046;50.930;13.334;2023-04-07T13:56:33;13.20;52.70
27633;DHT22;15046;50.930;13.334;2023-04-07T13:59:04;13.20;52.50
27633;DHT22;15046;50.930;13.334;2023-04-07T14:01:30;13.20;52.20
27633;DHT22;15046;50.930;13.334;2023-04-07T14:03:58;13.30;52.20
27633;DHT22;15046;50.930;13.334;2023-04-07T14:06:24;13.40;52.50
27633;DHT22;15046;50.930;13.334;2023-04-07T14:08:51;13.50;52.50
27633;DHT22;15046;50.930;13.334;2023-04-07T14:11:18;13.70;52.20
27633;DHT22;15046;50.930;13.334;2023-04-07T14:13:45;13.70;51.60
27633;DHT22;15046;50.930;13.334;2023-04-07T14:16:10;13.90;52.00
27633;DHT22;15046;50.930;13.334;2023-04-07T14:18:37;14.10;51.80
27633;DHT22;15046;50.930;13.334;2023-04-07T14:21:03;14.40;51.50
27633;DHT22;15046;50.930;13.334;2023-04-07T14:23:29;14.50;50.70
27633;DHT22;15046;50.930;13.334;2023-04-07T14:25:57;14.70;50.30
27633;DHT22;15046;50.930;13.334;2023-04-07T14:28:23;14.70;50.30
27633;DHT22;15046;50.930;13.334;2023-04-07T14:30:49;14.60;50.50
27633;DHT22;15046;50.930;13.334;2023-04-07T14:33:15;14.50;50.50
27633;DHT22;15046;50.930;13.334;2023-04-07T14:35:42;14.50;50.70
27633;DHT22;15046;50.930;13.334;2023-04-07T14:38:08;14.50;50.50
27633;DHT22;15046;50.930;13.334;2023-04-07T14:40:34;14.50;50.20
27633;DHT22;15046;50.930;13.334;2023-04-07T14:43:01;14.50;50.10
27633;DHT22;15046;50.930;13.334;2023-04-07T14:45:28;14.50;50.20
27633;DHT22;15046;50.930;13.334;2023-04-07T14:47:54;14.50;50.60
27633;DHT22;15046;50.930;13.334;2023-04-07T14:50:20;14.50;50.50
27633;DHT22;15046;50.930;13.334;2023-04-07T14:52:48;14.50;50.10
27633;DHT22;15046;50.930;13.334;2023-04-07T14:55:14;14.30;49.90
27633;DHT22;15046;50.930;13.334;2023-04-07T14:57:40;14.00;49.90
27633;DHT22;15046;50.930;13.334;2023-04-07T15:00:07;13.80;50.40
27633;DHT22;15046;50.930;13.334;2023-04-07T15:02:34;13.80;50.70
27633;DHT22;15046;50.930;13.334;2023-04-07T15:05:01;13.90;50.70
27633;DHT22;15046;50.930;13.334;2023-04-07T15:07:27;13.90;51.10
27633;DHT22;15046;50.930;13.334;2023-04-07T15:09:52;14.10;51.30
27633;DHT22;15046;50.930;13.334;2023-04-07T15:12:18;14.20;51.50
27633;DHT22;15046;50.930;13.334;2023-04-07T15:14:44;14.30;51.90
27633;DHT22;15046;50.930;13.334;2023-04-07T15:17:11;14.20;52.20
27633;DHT22;15046;50.930;13.334;2023-04-07T15:19:37;14.10;52.50
27633;DHT22;15046;50.930;13.334;2023-04-07T15:22:03;14.10;52.80
27633;DHT22;15046;50.930;13.334;2023-04-07T15:24:29;14.10;52.90
27633;DHT22;15046;50.930;13.334;2023-04-07T15:26:55;14.10;52.70
27633;DHT22;15046;50.930;13.334;2023-04-07T15:29:20;14.30;52.80
27633;DHT22;15046;50.930;13.334;2023-04-07T15:31:46;14.40;52.60
27633;DHT22;15046;50.930;13.334;2023-04-07T15:34:12;14.40;52.60
27633;DHT22;15046;50.930;13.334;2023-04-07T15:36:38;14.20;53.00
27633;DHT22;15046;50.930;13.334;2023-04-07T15:39:05;14.30;52.50
27633;DHT22;15046;50.930;13.334;2023-04-07T15:41:34;14.40;52.40
27633;DHT22;15046;50.930;13.334;2023-04-07T15:44:00;14.50;52.30
27633;DHT22;15046;50.930;13.334;2023-04-07T15:46:26;14.50;52.50
27633;DHT22;15046;50.930;13.334;2023-04-07T15:48:52;14.40;52.90
27633;DHT22;15046;50.930;13.334;2023-04-07T15:51:18;14.20;53.00
27633;DHT22;15046;50.930;13.334;2023-04-07T15:53:44;14.20;53.20
27633;DHT22;15046;50.930;13.334;2023-04-07T15:56:10;14.10;53.20